Time;durP1;ratioP1;P1;durP2;ratioP2;P2;SDS_P1;SDS_P2;PMS_P1;PMS_P2;Temp;Humidity;BMP_temperature;BMP_pressure;BME280_temperature;BME280_humidity;BME280_pressure;Samples;Min_cycle;Max_cycle;Signal;HPM_P1;HPM_P2
2024/02/08 00:00:41;;;;;;;0.00;0.00;;;9.50;99.90;;;;;;5006438;28;20029;-80
2024/02/08 00:03:10;;;;;;;0.10;0.10;;;9.60;99.90;;;;;;5005980;28;20042;-81
2024/02/08 00:05:37;;;;;;;0.10;0.10;;;9.50;99.90;;;;;;5008312;28;20121;-80
2024/02/08 00:08:06;;;;;;;0.10;0.10;;;9.50;99.90;;;;;;5003820;28;20678;-82
2024/02/08 00:10:32;;;;;;;0.00;0.00;;;9.50;99.90;;;;;;5007793;28;20084;-82
2024/02/08 00:12:58;;;;;;;0.57;0.57;;;9.50;99.90;;;;;;5008645;28;20030;-83
2024/02/08 00:15:25;;;;;;;1.60;1.50;;;9.50;99.90;;;;;;5009883;28;20032;-82
2024/02/08 00:17:51;;;;;;;0.08;0.08;;;9.50;99.90;;;;;;5007850;28;20629;-82
2024/02/08 00:20:17;;;;;;;0.10;0.10;;;9.50;99.90;;;;;;5008992;28;20037;-82
2024/02/08 00:22:43;;;;;;;0.10;0.10;;;9.50;99.90;;;;;;5007986;28;20026;-80
2024/02/08 00:25:09;;;;;;;0.10;0.10;;;9.50;99.90;;;;;;5007122;28;20033;-80
2024/02/08 00:27:36;;;;;;;0.00;0.00;;;9.50;99.90;;;;;;5011637;28;20030;-80
2024/02/08 00:30:01;;;;;;;0.45;0.45;;;9.50;99.90;;;;;;5008357;28;20033;-81
2024/02/08 00:32:28;;;;;;;0.10;0.10;;;9.50;99.90;;;;;;5008221;28;20045;-80
2024/02/08 00:34:53;;;;;;;0.10;0.10;;;9.60;99.90;;;;;;5008467;28;20175;-81
2024/02/08 00:37:19;;;;;;;0.10;0.10;;;9.60;99.90;;;;;;5008094;28;20101;-81
2024/02/08 00:39:45;;;;;;;0.10;0.10;;;9.60;99.90;;;;;;5006921;28;20061;-80
2024/02/08 00:42:13;;;;;;;3.07;2.17;;;9.50;99.90;;;;;;5007542;28;20116;-80
2024/02/08 00:44:41;;;;;;;0.10;0.10;;;9.60;99.90;;;;;;5004888;28;20069;-81
2024/02/08 00:47:08;;;;;;;0.73;0.73;;;9.60;99.90;;;;;;5007647;28;20026;-80
2024/02/08 00:49:34;;;;;;;0.10;0.10;;;9.50;99.90;;;;;;5007325;28;20030;-80
2024/02/08 00:52:00;;;;;;;0.00;0.00;;;9.50;99.90;;;;;;5007115;28;20032;-80
2024/02/08 00:54:26;;;;;;;0.10;0.10;;;9.50;99.90;;;;;;5005108;28;20034;-80
2024/02/08 00:56:53;;;;;;;0.10;0.10;;;9.50;99.90;;;;;;5004746;28;20123;-80
2024/02/08 00:59:22;;;;;;;0.10;0.10;;;9.60;99.90;;;;;;5002458;28;20025;-80
2024/02/08 01:01:48;;;;;;;0.10;0.10;;;9.60;99.90;;;;;;5007309;28;20104;-80
2024/02/08 01:04:13;;;;;;;0.00;0.00;;;9.60;99.90;;;;;;5007339;28;20223;-80
2024/02/08 01:06:40;;;;;;;0.10;0.10;;;9.60;99.90;;;;;;5004859;28;20045;-80
2024/02/08 01:09:07;;;;;;;0.05;0.05;;;9.60;99.90;;;;;;5004437;28;20049;-80
2024/02/08 01:11:33;;;;;;;;;;;9.60;99.90;;;;;;5005620;28;20480;-80
2024/02/08 01:14:01;;;;;;;0.00;0.00;;;9.60;99.90;;;;;;5006566;28;20453;-80
2024/02/08 01:16:33;;;;;;;0.10;0.10;;;9.60;99.90;;;;;;5005976;28;20353;-79
2024/02/08 01:18:58;;;;;;;0.10;0.10;;;9.60;99.90;;;;;;5004934;28;20133;-80
2024/02/08 01:21:26;;;;;;;0.10;0.10;;;9.60;99.90;;;;;;5009201;28;20106;-80
2024/02/08 01:23:52;;;;;;;0.00;0.00;;;9.60;99.90;;;;;;5006819;28;20029;-80
2024/02/08 01:26:18;;;;;;;0.10;0.10;;;9.60;99.90;;;;;;5006586;28;20037;-79
2024/02/08 01:28:44;;;;;;;0.10;0.10;;;9.60;99.90;;;;;;5009054;28;20033;-80
2024/02/08 01:31:10;;;;;;;0.10;0.10;;;9.60;99.90;;;;;;5006330;28;20037;-80
2024/02/08 01:33:36;;;;;;;1.90;0.93;;;9.60;99.90;;;;;;5007762;28;20795;-80
2024/02/08 01:36:02;;;;;;;1.60;1.50;;;9.60;99.90;;;;;;5006767;28;20469;-80
2024/02/08 01:38:29;;;;;;;0.63;0.63;;;9.60;99.90;;;;;;5004149;28;20544;-80
2024/02/08 01:40:55;;;;;;;0.00;0.00;;;9.60;99.90;;;;;;5003383;28;20045;-80
2024/02/08 01:43:21;;;;;;;0.10;0.10;;;9.60;99.90;;;;;;4999603;28;20080;-80
2024/02/08 01:45:46;;;;;;;0.53;0.53;;;9.60;99.90;;;;;;5007044;28;20030;-81
2024/02/08 01:48:15;;;;;;;0.20;0.20;;;9.60;99.90;;;;;;5006637;28;20061;-80
2024/02/08 01:50:44;;;;;;;0.10;0.10;;;9.50;99.90;;;;;;5007628;28;20076;-81
2024/02/08 01:53:15;;;;;;;0.10;0.10;;;9.60;99.90;;;;;;5007624;28;20870;-80
2024/02/08 01:55:49;;;;;;;0.52;0.52;;;9.60;99.90;;;;;;5004404;28;20040;-80
2024/02/08 01:58:15;;;;;;;0.00;0.00;;;9.70;99.90;;;;;;5008575;28;20050;-81
2024/02/08 02:00:48;;;;;;;2.22;0.45;;;9.70;99.90;;;;;;5009739;28;20038;-80
2024/02/08 02:03:16;;;;;;;18.00;1.55;;;9.70;99.90;;;;;;5008481;28;20060;-80
2024/02/08 02:05:48;;;;;;;1.13;0.95;;;9.60;99.90;;;;;;5008230;28;20145;-81
2024/02/08 02:08:18;;;;;;;0.30;0.30;;;9.60;99.90;;;;;;5009997;28;20030;-81
2024/02/08 02:10:52;;;;;;;1.45;1.27;;;9.70;99.90;;;;;;5007758;28;20779;-81
2024/02/08 02:13:19;;;;;;;3.83;3.25;;;9.60;99.90;;;;;;5011447;28;20038;-80
2024/02/08 02:15:44;;;;;;;0.73;0.73;;;9.60;99.90;;;;;;5014086;28;20370;-81
2024/02/08 02:18:12;;;;;;;1.67;1.63;;;9.70;99.90;;;;;;5010045;28;20032;-81
2024/02/08 02:20:38;;;;;;;0.50;0.50;;;9.70;99.90;;;;;;5009388;28;20030;-82
2024/02/08 02:23:04;;;;;;;0.00;0.00;;;9.70;99.90;;;;;;5007814;28;20036;-81
2024/02/08 02:25:32;;;;;;;3.42;3.20;;;9.70;99.90;;;;;;5008173;28;20022;-81
2024/02/08 02:27:58;;;;;;;1.83;1.73;;;9.70;99.90;;;;;;5010495;28;20033;-83
2024/02/08 02:30:28;;;;;;;1.77;0.95;;;9.70;99.90;;;;;;5011787;28;20032;-82
2024/02/08 02:33:01;;;;;;;2.67;2.55;;;9.70;99.90;;;;;;5010087;28;20783;-82
2024/02/08 02:35:28;;;;;;;1.80;1.58;;;9.70;99.90;;;;;;5007351;28;20751;-82
2024/02/08 02:37:58;;;;;;;0.20;0.20;;;9.70;99.90;;;;;;5012731;28;20040;-81
2024/02/08 02:40:24;;;;;;;0.08;0.08;;;9.70;99.90;;;;;;5008501;28;20026;-80
2024/02/08 02:42:56;;;;;;;0.10;0.10;;;9.70;99.90;;;;;;5009452;28;20041;-78
2024/02/08 02:45:23;;;;;;;0.65;0.65;;;9.70;99.90;;;;;;5006628;28;20034;-80
2024/02/08 02:48:01;;;;;;;0.10;0.10;;;9.70;99.90;;;;;;5007732;28;20041;-80
2024/02/08 02:50:27;;;;;;;1.02;0.98;;;9.80;99.90;;;;;;5006085;28;20149;-79
2024/02/08 02:52:53;;;;;;;0.10;0.10;;;9.80;99.90;;;;;;5006268;28;20149;-79
2024/02/08 02:55:20;;;;;;;0.00;0.00;;;9.70;99.90;;;;;;5009864;28;20076;-79
2024/02/08 02:57:47;;;;;;;0.45;0.45;;;9.70;99.90;;;;;;5008653;28;20022;-80
2024/02/08 03:00:21;;;;;;;0.10;0.10;;;9.70;99.90;;;;;;5008264;28;20068;-80
2024/02/08 03:02:57;;;;;;;0.10;0.10;;;9.80;99.90;;;;;;5007222;28;20394;-80
2024/02/08 03:05:24;;;;;;;0.10;0.10;;;9.70;99.90;;;;;;5008651;28;20444;-80
2024/02/08 03:07:53;;;;;;;0.38;0.38;;;9.70;99.90;;;;;;5010514;28;20041;-81
2024/02/08 03:10:22;;;;;;;0.10;0.10;;;9.70;99.90;;;;;;5011764;28;20040;-81
2024/02/08 03:12:51;;;;;;;0.68;0.57;;;9.70;99.90;;;;;;5008254;28;20038;-81
2024/02/08 03:15:22;;;;;;;0.28;0.28;;;9.70;99.90;;;;;;5006297;28;20107;-80
2024/02/08 03:17:47;;;;;;;0.10;0.10;;;9.60;99.90;;;;;;5006929;28;20034;-81
2024/02/08 03:20:23;;;;;;;0.08;0.08;;;9.60;99.90;;;;;;5007237;28;20172;-80
2024/02/08 03:22:52;;;;;;;1.20;1.17;;;9.70;99.90;;;;;;5008021;28;20033;-80
2024/02/08 03:25:21;;;;;;;0.13;0.13;;;9.60;99.90;;;;;;5009671;28;20037;-80
2024/02/08 03:27:51;;;;;;;4.28;2.65;;;9.60;99.90;;;;;;5006025;28;20030;-80
2024/02/08 03:30:22;;;;;;;0.10;0.10;;;9.70;99.90;;;;;;5005953;28;20172;-80
2024/02/08 03:32:49;;;;;;;0.45;0.30;;;9.70;99.90;;;;;;5005562;28;20029;-81
2024/02/08 03:35:19;;;;;;;7.53;2.95;;;9.60;99.90;;;;;;5008832;28;20037;-81
2024/02/08 03:37:48;;;;;;;0.75;0.75;;;9.70;99.90;;;;;;5005968;28;20088;-81
2024/02/08 03:40:16;;;;;;;0.00;0.00;;;9.60;99.90;;;;;;5005159;28;20064;-81
2024/02/08 03:42:41;;;;;;;6.47;2.72;;;9.70;99.90;;;;;;5004675;28;20034;-81
2024/02/08 03:45:08;;;;;;;1.30;1.30;;;9.60;99.90;;;;;;4913042;28;2699334;-82
2024/02/08 03:47:33;;;;;;;0.33;0.33;;;9.70;99.90;;;;;;5007610;28;20036;-81
2024/02/08 03:49:59;;;;;;;0.30;0.30;;;9.70;99.90;;;;;;5008003;28;20428;-81
2024/02/08 03:52:30;;;;;;;0.00;0.00;;;9.60;99.90;;;;;;5006580;28;20061;-80
2024/02/08 03:54:56;;;;;;;1.25;0.77;;;9.50;99.90;;;;;;5010897;28;20033;-80
2024/02/08 03:57:23;;;;;;;0.10;0.10;;;9.40;99.90;;;;;;5007432;28;20774;-81
2024/02/08 03:59:52;;;;;;;;;;;9.40;99.90;;;;;;5006376;28;20037;-81
2024/02/08 04:02:21;;;;;;;0.00;0.00;;;9.50;99.90;;;;;;5005885;28;19921;-81
2024/02/08 04:04:50;;;;;;;0.05;0.05;;;9.40;99.90;;;;;;5008835;28;20131;-80
2024/02/08 04:07:20;;;;;;;1.73;1.63;;;9.50;99.90;;;;;;5004052;28;20049;-82
2024/02/08 04:09:55;;;;;;;0.10;0.10;;;9.50;99.90;;;;;;5007083;28;20136;-79
2024/02/08 04:56:08;;;;;;;0.10;0.10;;;8.90;99.90;;;;;;5006846;28;20058;-81
2024/02/08 04:58:36;;;;;;;0.15;0.15;;;8.90;99.90;;;;;;5006613;28;20021;-80
2024/02/08 05:01:02;;;;;;;0.30;0.30;;;9.00;99.90;;;;;;5005698;28;20022;-81
2024/02/08 05:03:28;;;;;;;0.10;0.10;;;9.20;99.90;;;;;;5005427;28;20058;-81
2024/02/08 05:05:54;;;;;;;0.10;0.10;;;9.20;99.90;;;;;;5005858;28;20157;-81
2024/02/08 05:08:24;;;;;;;0.00;0.00;;;9.20;99.90;;;;;;5002610;28;20662;-80
2024/02/08 05:10:51;;;;;;;0.10;0.10;;;9.30;99.90;;;;;;5004768;28;20030;-80
2024/02/08 05:13:17;;;;;;;;;;;9.30;99.90;;;;;;5002994;28;20037;-83
2024/02/08 05:15:43;;;;;;;0.38;0.38;;;9.30;99.90;;;;;;5004951;28;19924;-81
2024/02/08 05:18:12;;;;;;;0.10;0.10;;;9.30;99.90;;;;;;5005497;28;20038;-81
2024/02/08 05:20:39;;;;;;;1.65;1.55;;;9.20;99.90;;;;;;5005464;28;20037;-81
2024/02/08 05:23:04;;;;;;;;;;;9.10;99.90;;;;;;5007665;28;20030;-81
2024/02/08 05:25:30;;;;;;;0.10;0.10;;;9.00;99.90;;;;;;5008022;28;19975;-82
2024/02/08 05:27:56;;;;;;;4.03;2.67;;;8.90;99.90;;;;;;5006644;28;20026;-82
2024/02/08 05:30:22;;;;;;;0.10;0.10;;;9.00;99.90;;;;;;5005873;28;20484;-82
2024/02/08 05:32:48;;;;;;;0.15;0.15;;;8.90;99.90;;;;;;5006760;28;20136;-82
2024/02/08 05:35:18;;;;;;;0.10;0.10;;;9.00;99.90;;;;;;5006135;28;20041;-82
2024/02/08 05:37:47;;;;;;;1.42;1.38;;;9.00;99.90;;;;;;5005908;28;20030;-82
2024/02/08 05:40:14;;;;;;;0.25;0.25;;;9.20;99.90;;;;;;5005452;28;20022;-81
2024/02/08 05:42:43;;;;;;;0.40;0.40;;;9.20;99.90;;;;;;5006350;28;20098;-81
2024/02/08 05:45:19;;;;;;;0.05;0.05;;;9.20;99.90;;;;;;5004632;28;20062;-81
2024/02/08 05:47:51;;;;;;;0.00;0.00;;;9.10;99.90;;;;;;5007924;28;20290;-82
2024/02/08 05:50:24;;;;;;;0.10;0.10;;;9.00;99.90;;;;;;5003180;28;20536;-82
2024/02/08 05:52:56;;;;;;;0.85;0.85;;;8.90;99.90;;;;;;5006346;28;20512;-82
2024/02/08 05:55:26;;;;;;;0.28;0.28;;;8.90;99.90;;;;;;5006857;28;20022;-81
2024/02/08 05:57:52;;;;;;;0.10;0.10;;;8.80;99.90;;;;;;5004426;28;20020;-79
2024/02/08 06:00:45;;;;;;;0.10;0.10;;;8.80;99.90;;;;;;5006718;28;20022;-79
2024/02/08 06:03:17;;;;;;;10.80;3.72;;;8.80;99.90;;;;;;5008476;28;20126;-78
2024/02/08 06:05:49;;;;;;;0.20;0.20;;;8.80;99.90;;;;;;5012177;28;20037;-80
2024/02/08 06:08:25;;;;;;;0.08;0.08;;;8.80;99.90;;;;;;5009310;28;20037;-79
2024/02/08 06:10:52;;;;;;;0.10;0.10;;;8.80;99.90;;;;;;5007940;28;20038;-80
2024/02/08 06:13:22;;;;;;;0.08;0.08;;;8.80;99.90;;;;;;5003798;28;20034;-79
2024/02/08 06:15:50;;;;;;;0.10;0.10;;;8.90;99.90;;;;;;5005542;28;20511;-77
2024/02/08 06:18:20;;;;;;;0.20;0.20;;;8.80;99.90;;;;;;5003485;28;20053;-78
2024/02/08 06:20:59;;;;;;;0.20;0.20;;;8.80;99.90;;;;;;5005860;28;20057;-78
2024/02/08 06:23:27;;;;;;;0.10;0.10;;;8.80;99.90;;;;;;5002611;28;20080;-78
2024/02/08 06:28:41;;;;;;;0.10;0.10;;;8.90;99.90;;;;;;5001405;28;20038;-78
2024/02/08 06:31:07;;;;;;;0.17;0.17;;;8.90;99.90;;;;;;5005866;28;20042;-78
2024/02/08 06:33:42;;;;;;;0.10;0.10;;;9.10;99.90;;;;;;5005855;28;20551;-78
2024/02/08 06:36:12;;;;;;;0.03;0.03;;;9.00;99.90;;;;;;5007782;28;20065;-77
2024/02/08 06:38:41;;;;;;;0.13;0.13;;;8.90;99.90;;;;;;5008400;28;20104;-77
2024/02/08 06:41:12;;;;;;;5.72;3.72;;;8.90;99.90;;;;;;5008620;28;20030;-78
2024/02/08 06:46:48;;;;;;;0.10;0.10;;;8.80;99.90;;;;;;5009112;28;20069;-78
2024/02/08 07:39:21;;;;;;;0.10;0.10;;;9.10;99.90;;;;;;5011224;28;20655;-82
2024/02/08 07:41:40;;;;;;;2.65;2.45;;;9.20;99.90;;;;;;5008314;28;20037;-83
2024/02/08 07:44:09;;;;;;;0.20;0.20;;;9.30;99.90;;;;;;5008694;28;20053;-83
2024/02/08 07:46:40;;;;;;;0.13;0.13;;;9.40;99.90;;;;;;5012602;28;20037;-81
2024/02/08 07:49:06;;;;;;;0.10;0.10;;;9.50;99.90;;;;;;5005904;28;20029;-83
2024/02/08 07:51:33;;;;;;;0.13;0.13;;;9.60;99.90;;;;;;5002148;28;20041;-82
2024/02/08 07:53:59;;;;;;;0.10;0.10;;;9.50;99.90;;;;;;5006888;28;20488;-83
2024/02/08 07:56:46;;;;;;;0.10;0.10;;;9.40;99.90;;;;;;5008120;28;20033;-83
2024/02/08 07:59:15;;;;;;;;;;;9.40;99.90;;;;;;5005612;28;20494;-83
2024/02/08 08:01:49;;;;;;;0.00;0.00;;;9.60;99.90;;;;;;5008923;28;19910;-83
2024/02/08 08:04:41;;;;;;;0.00;0.00;;;9.70;99.90;;;;;;5020904;28;21149;-83
2024/02/08 08:07:02;;;;;;;0.00;0.00;;;9.70;99.90;;;;;;5006560;28;20029;-82
2024/02/08 08:09:28;;;;;;;0.00;0.00;;;9.80;99.90;;;;;;5013319;28;20025;-82
2024/02/08 08:11:57;;;;;;;0.00;0.00;;;9.60;99.90;;;;;;5015447;28;20037;-82
2024/02/08 08:19:47;;;;;;;14.05;4.28;;;9.40;99.90;;;;;;5008761;28;20052;-82
2024/02/08 08:22:50;;;;;;;0.10;0.10;;;9.40;99.90;;;;;;5011935;28;20036;-83
2024/02/08 08:28:09;;;;;;;0.10;0.10;;;9.80;99.90;;;;;;5007978;28;20063;-82
2024/02/08 08:30:38;;;;;;;0.10;0.10;;;10.10;99.90;;;;;;5008855;28;20025;-82
2024/02/08 08:35:37;;;;;;;0.10;0.10;;;10.30;99.90;;;;;;5008763;28;20056;-82
2024/02/08 08:41:00;;;;;;;0.00;0.00;;;10.40;99.90;;;;;;5007239;28;20033;-83
2024/02/08 08:43:31;;;;;;;0.10;0.10;;;10.40;99.90;;;;;;5009534;28;20514;-83
2024/02/08 08:46:00;;;;;;;0.30;0.30;;;10.40;99.90;;;;;;5007808;28;20649;-83
2024/02/08 08:48:33;;;;;;;0.00;0.00;;;10.40;99.90;;;;;;5009178;28;20069;-83
2024/02/08 08:51:10;;;;;;;0.80;0.80;;;10.50;99.90;;;;;;5007794;28;20040;-83
2024/02/08 08:53:43;;;;;;;0.00;0.00;;;10.60;99.90;;;;;;5006230;28;20089;-82
2024/02/08 08:56:13;;;;;;;0.00;0.00;;;10.40;99.90;;;;;;5004587;28;20026;-83
2024/02/08 08:58:39;;;;;;;0.00;0.00;;;10.40;99.90;;;;;;5010901;28;20026;-83
2024/02/08 09:01:15;;;;;;;0.57;0.57;;;11.00;99.90;;;;;;5007722;28;20022;-82
2024/02/08 09:03:55;;;;;;;0.10;0.10;;;11.70;99.90;;;;;;5006015;28;20084;-83
2024/02/08 09:06:25;;;;;;;0.00;0.00;;;12.20;99.90;;;;;;5009120;28;20121;-83
2024/02/08 09:08:59;;;;;;;0.20;0.20;;;12.50;99.90;;;;;;5012400;28;20525;-83
2024/02/08 09:11:26;;;;;;;1.30;1.17;;;12.90;99.90;;;;;;5014831;28;20037;-83
2024/02/08 09:13:55;;;;;;;0.00;0.00;;;13.30;99.90;;;;;;5014450;28;20030;-83
2024/02/08 09:21:35;;;;;;;0.10;0.10;;;13.30;99.90;;;;;;5009521;28;20026;-83
2024/02/08 09:24:05;;;;;;;0.10;0.10;;;13.50;99.90;;;;;;5011436;28;20755;-83
2024/02/08 09:29:25;;;;;;;0.10;0.10;;;13.80;99.90;;;;;;5007211;28;20033;-83
2024/02/08 09:31:56;;;;;;;0.03;0.03;;;13.60;99.90;;;;;;5005034;28;20034;-83
2024/02/08 09:34:36;;;;;;;0.20;0.20;;;13.60;99.90;;;;;;5006963;28;20057;-83
2024/02/08 09:37:03;;;;;;;0.03;0.03;;;13.40;99.90;;;;;;5001839;28;20037;-83
2024/02/08 09:39:53;;;;;;;1.13;1.13;;;13.00;99.90;;;;;;5007947;28;20615;-83
2024/02/08 09:42:15;;;;;;;0.00;0.00;;;13.20;99.90;;;;;;5011518;28;20136;-83
2024/02/08 09:44:49;;;;;;;0.43;0.43;;;13.60;99.90;;;;;;5005168;28;20292;-83
2024/02/08 09:47:25;;;;;;;0.68;0.68;;;13.50;99.90;;;;;;5010233;28;20104;-82
2024/02/08 09:50:00;;;;;;;0.10;0.10;;;13.60;99.90;;;;;;5007893;28;20026;-83
2024/02/08 09:52:30;;;;;;;0.10;0.10;;;14.20;99.90;;;;;;5006889;28;20303;-83
2024/02/08 09:55:06;;;;;;;0.00;0.00;;;14.30;99.90;;;;;;5015612;28;20037;-83
2024/02/08 09:57:45;;;;;;;0.20;0.20;;;14.00;99.90;;;;;;5006079;28;20151;-84
2024/02/08 10:00:34;;;;;;;0.00;0.00;;;14.00;99.90;;;;;;5007230;28;20045;-83
2024/02/08 10:03:05;;;;;;;0.00;0.00;;;14.10;99.90;;;;;;5005934;28;20419;-83
2024/02/08 10:05:52;;;;;;;0.28;0.28;;;14.00;99.90;;;;;;5010482;28;20026;-83
2024/02/08 10:08:32;;;;;;;2.90;2.47;;;13.90;99.90;;;;;;5001149;28;20038;-83
2024/02/08 10:11:23;;;;;;;0.08;0.08;;;13.50;99.90;;;;;;5009530;28;20039;-83
2024/02/08 10:14:01;;;;;;;0.17;0.17;;;13.80;99.90;;;;;;5016149;28;20117;-83
2024/02/08 10:16:43;;;;;;;1.00;1.00;;;14.10;99.90;;;;;;5017983;28;20535;-83
2024/02/08 10:19:28;;;;;;;0.70;0.70;;;14.30;99.90;;;;;;5008547;28;20030;-83
2024/02/08 10:22:00;;;;;;;0.00;0.00;;;14.00;99.90;;;;;;5009819;28;20777;-83
2024/02/08 10:27:19;;;;;;;6.93;0.82;;;13.50;99.90;;;;;;5011248;28;20626;-83
2024/02/08 10:29:52;;;;;;;0.10;0.10;;;13.80;99.90;;;;;;5009452;28;20044;-83
2024/02/08 10:32:18;;;;;;;0.00;0.00;;;13.90;99.90;;;;;;5008162;28;20030;-83
2024/02/08 10:34:45;;;;;;;0.75;0.75;;;13.60;99.90;;;;;;5009597;28;20033;-83
2024/02/08 10:37:46;;;;;;;0.50;0.50;;;13.50;99.90;;;;;;5008396;28;20030;-83
2024/02/08 10:40:23;;;;;;;0.00;0.00;;;13.60;99.90;;;;;;5009276;28;20036;-83
2024/02/08 10:42:49;;;;;;;0.10;0.10;;;13.40;99.90;;;;;;5006414;28;20525;-83
2024/02/08 10:45:17;;;;;;;0.00;0.00;;;13.40;99.90;;;;;;5008030;28;20616;-83
2024/02/08 10:47:47;;;;;;;0.43;0.43;;;13.70;99.90;;;;;;5012376;28;20030;-83
2024/02/08 10:50:19;;;;;;;0.28;0.28;;;13.80;99.90;;;;;;5014717;28;20083;-83
2024/02/08 10:52:49;;;;;;;2.15;2.00;;;13.80;99.90;;;;;;5008220;28;20045;-83
2024/02/08 10:55:18;;;;;;;0.00;0.00;;;13.70;99.90;;;;;;5009776;28;20030;-83
2024/02/08 11:03:08;;;;;;;22.45;4.03;;;13.80;99.30;;;;;;5009701;28;20080;-83
2024/02/08 11:05:47;;;;;;;0.00;0.00;;;13.80;99.60;;;;;;5009389;28;20490;-83
2024/02/08 11:08:24;;;;;;;0.00;0.00;;;13.70;99.70;;;;;;5010843;28;20029;-82
2024/02/08 11:10:58;;;;;;;0.00;0.00;;;13.70;99.30;;;;;;5042074;28;20026;-83
2024/02/08 11:13:29;;;;;;;0.00;0.00;;;13.70;99.40;;;;;;5013738;28;20034;-83
2024/02/08 11:16:15;;;;;;;0.45;0.45;;;13.80;99.50;;;;;;5011922;28;20025;-83
2024/02/08 11:18:45;;;;;;;0.00;0.00;;;13.60;99.50;;;;;;5012312;28;20069;-83
2024/02/08 11:21:19;;;;;;;0.00;0.00;;;13.70;99.80;;;;;;5013662;28;20030;-83
2024/02/08 11:23:54;;;;;;;0.10;0.10;;;13.70;99.90;;;;;;5002157;28;20033;-84
2024/02/08 11:26:25;;;;;;;0.20;0.20;;;13.70;99.70;;;;;;5011398;28;20398;-82
2024/02/08 11:29:18;;;;;;;0.00;0.00;;;13.50;99.70;;;;;;5008457;28;20409;-83
2024/02/08 11:31:46;;;;;;;0.08;0.08;;;13.60;99.70;;;;;;5020484;28;20026;-82
2024/02/08 11:34:24;;;;;;;0.00;0.00;;;13.60;99.80;;;;;;5012593;28;20061;-83
2024/02/08 11:36:52;;;;;;;0.00;0.00;;;13.80;99.10;;;;;;5009417;28;20918;-83
2024/02/08 11:39:29;;;;;;;0.00;0.00;;;14.10;98.40;;;;;;5010195;28;20029;-82
2024/02/08 11:42:05;;;;;;;0.00;0.00;;;14.00;98.20;;;;;;5000612;28;20581;-83
2024/02/08 11:44:43;;;;;;;0.00;0.00;;;13.90;98.00;;;;;;5008028;28;20137;-83
2024/02/08 11:47:23;;;;;;;0.00;0.00;;;14.00;97.70;;;;;;5011773;28;20040;-82
2024/02/08 11:50:01;;;;;;;0.00;0.00;;;14.10;97.30;;;;;;5008128;28;20034;-83
2024/02/08 11:52:27;;;;;;;0.22;0.22;;;14.00;97.60;;;;;;5009117;28;20200;-82
2024/02/08 11:55:08;;;;;;;;;;;13.90;97.60;;;;;;5007685;28;20451;-82
2024/02/08 11:57:40;;;;;;;0.00;0.00;;;14.10;97.50;;;;;;5006459;28;20130;-82
2024/02/08 12:00:16;;;;;;;0.03;0.03;;;13.90;97.30;;;;;;5006822;28;20747;-82
2024/02/08 12:02:52;;;;;;;2.63;2.47;;;13.90;97.40;;;;;;5006462;28;20026;-82
2024/02/08 12:05:19;;;;;;;0.00;0.00;;;13.90;97.50;;;;;;5008167;28;20864;-82
2024/02/08 12:07:46;;;;;;;0.00;0.00;;;13.90;97.40;;;;;;5007746;28;20814;-82
2024/02/08 12:10:16;;;;;;;0.00;0.00;;;13.90;97.10;;;;;;5006144;28;20021;-82
2024/02/08 12:12:45;;;;;;;0.00;0.00;;;13.90;97.10;;;;;;5011788;28;20034;-83
2024/02/08 12:15:12;;;;;;;0.00;0.00;;;14.10;96.60;;;;;;5008417;28;20100;-82
2024/02/08 12:17:40;;;;;;;6.22;1.98;;;14.10;96.40;;;;;;5018993;28;20022;-83
2024/02/08 12:20:10;;;;;;;0.00;0.00;;;14.20;95.80;;;;;;5013928;28;20029;-82
2024/02/08 12:22:41;;;;;;;0.75;0.75;;;14.20;96.00;;;;;;5017827;28;20025;-82
2024/02/08 12:25:15;;;;;;;3.20;2.45;;;14.10;95.70;;;;;;5012760;28;20049;-83
2024/02/08 12:27:57;;;;;;;28.10;1.85;;;14.20;95.40;;;;;;5011416;28;20049;-83
2024/02/08 12:30:33;;;;;;;0.60;0.60;;;14.30;95.20;;;;;;5006611;28;20107;-82
2024/02/08 12:33:07;;;;;;;0.00;0.00;;;14.50;95.00;;;;;;5010912;28;20030;-82
2024/02/08 12:35:35;;;;;;;0.10;0.10;;;14.60;95.40;;;;;;5010204;28;20035;-83
2024/02/08 12:38:03;;;;;;;0.00;0.00;;;14.70;95.10;;;;;;5008382;28;20056;-83
2024/02/08 12:40:32;;;;;;;0.15;0.15;;;14.60;95.40;;;;;;5009436;28;20030;-83
2024/02/08 12:42:59;;;;;;;7.63;2.25;;;14.50;95.20;;;;;;5006720;28;20030;-83
2024/02/08 12:45:28;;;;;;;0.10;0.10;;;14.40;95.40;;;;;;5010335;28;20061;-82
2024/02/08 12:47:57;;;;;;;0.00;0.00;;;14.40;95.60;;;;;;5012528;28;20068;-83
2024/02/08 12:50:24;;;;;;;0.47;0.47;;;14.20;95.70;;;;;;5006797;28;20040;-83
2024/02/08 12:52:56;;;;;;;0.20;0.20;;;14.20;95.80;;;;;;5007927;28;20026;-83
2024/02/08 12:55:23;;;;;;;0.10;0.10;;;14.40;96.10;;;;;;5006413;28;20026;-83
2024/02/08 12:57:57;;;;;;;;;;;14.40;95.20;;;;;;5008188;28;20083;-82
2024/02/08 13:00:24;;;;;;;0.10;0.10;;;14.50;95.10;;;;;;5006674;28;19909;-83
2024/02/08 13:02:54;;;;;;;0.00;0.00;;;14.70;94.70;;;;;;5008085;28;20120;-83
2024/02/08 13:05:22;;;;;;;19.85;6.07;;;14.80;94.80;;;;;;5006478;28;20722;-83
2024/02/08 13:08:00;;;;;;;0.00;0.00;;;14.70;94.60;;;;;;5004433;28;21510;-83
2024/02/08 13:10:28;;;;;;;0.00;0.00;;;14.60;94.60;;;;;;5005254;28;20033;-83
2024/02/08 13:13:04;;;;;;;2.60;2.13;;;14.60;94.30;;;;;;5005037;28;20045;-83
2024/02/08 13:15:35;;;;;;;0.00;0.00;;;14.60;94.50;;;;;;5002477;28;20022;-83
2024/02/08 13:18:02;;;;;;;0.00;0.00;;;14.70;94.40;;;;;;5009171;28;20033;-83
2024/02/08 13:20:28;;;;;;;0.10;0.10;;;14.60;94.00;;;;;;5005735;28;20024;-83
2024/02/08 13:22:55;;;;;;;0.00;0.00;;;14.70;94.00;;;;;;5005479;28;20481;-83
2024/02/08 13:25:21;;;;;;;;;;;14.70;94.00;;;;;;5006261;28;20029;-83
2024/02/08 13:27:50;;;;;;;0.10;0.10;;;14.70;94.00;;;;;;5010219;28;20479;-83
2024/02/08 13:30:16;;;;;;;0.00;0.00;;;14.70;93.30;;;;;;5008057;28;20057;-83
2024/02/08 13:32:49;;;;;;;0.00;0.00;;;14.80;93.30;;;;;;5009332;28;20026;-83
2024/02/08 13:35:21;;;;;;;0.00;0.00;;;14.90;93.20;;;;;;5005996;28;20487;-82
2024/02/08 13:37:50;;;;;;;4.10;2.85;;;15.00;92.50;;;;;;5005850;28;20068;-83
2024/02/08 13:40:18;;;;;;;0.05;0.05;;;15.00;92.10;;;;;;5007342;28;20025;-83
2024/02/08 13:42:45;;;;;;;0.10;0.10;;;15.10;91.80;;;;;;5007891;28;20025;-83
2024/02/08 13:45:13;;;;;;;;;;;14.90;91.90;;;;;;5007323;28;20592;-82
2024/02/08 13:47:49;;;;;;;0.00;0.00;;;14.80;92.10;;;;;;5018334;28;19935;-83
2024/02/08 13:50:19;;;;;;;0.00;0.00;;;14.70;92.40;;;;;;5017044;28;20116;-83
2024/02/08 13:52:48;;;;;;;0.00;0.00;;;14.70;92.00;;;;;;5017618;28;20447;-83
2024/02/08 13:55:17;;;;;;;0.45;0.45;;;14.70;92.20;;;;;;5015792;28;20037;-83
2024/02/08 13:57:51;;;;;;;19.48;5.22;;;14.70;92.30;;;;;;5008998;28;20030;-83
2024/02/08 14:00:26;;;;;;;1.95;0.75;;;14.80;91.20;;;;;;5016539;28;20029;-83
2024/02/08 14:02:53;;;;;;;0.00;0.00;;;14.90;91.60;;;;;;5014660;28;20037;-83
2024/02/08 14:05:20;;;;;;;;;;;14.80;91.70;;;;;;5014220;28;20136;-83
2024/02/08 14:07:52;;;;;;;0.00;0.00;;;14.90;91.20;;;;;;5017622;28;20708;-82
2024/02/08 14:10:18;;;;;;;0.00;0.00;;;15.10;91.50;;;;;;5008658;28;20088;-83
2024/02/08 14:12:45;;;;;;;0.98;0.98;;;15.10;91.10;;;;;;5041660;28;20035;-84
2024/02/08 14:15:12;;;;;;;0.00;0.00;;;15.10;91.00;;;;;;5009155;28;20033;-83
2024/02/08 14:17:41;;;;;;;2.28;1.48;;;15.00;90.30;;;;;;5014835;28;20026;-83
2024/02/08 14:20:30;;;;;;;0.00;0.00;;;15.00;90.40;;;;;;5014172;28;20038;-83
2024/02/08 14:23:01;;;;;;;0.08;0.08;;;15.00;90.20;;;;;;5012093;28;20465;-83
2024/02/08 14:28:12;;;;;;;11.20;1.65;;;14.90;89.70;;;;;;5010033;28;20033;-83
2024/02/08 14:30:40;;;;;;;0.00;0.00;;;14.80;89.70;;;;;;5015451;28;20029;-83
2024/02/08 14:33:06;;;;;;;0.00;0.00;;;14.80;89.50;;;;;;5008468;28;20124;-82
2024/02/08 14:35:33;;;;;;;0.00;0.00;;;14.80;89.20;;;;;;5008631;28;20026;-83
2024/02/08 14:37:59;;;;;;;0.00;0.00;;;14.80;88.50;;;;;;5008970;28;20030;-83
2024/02/08 14:40:27;;;;;;;0.00;0.00;;;14.80;89.70;;;;;;5011025;28;20072;-82
2024/02/08 14:42:57;;;;;;;0.00;0.00;;;14.80;89.60;;;;;;5011689;28;20034;-83
2024/02/08 14:45:25;;;;;;;2.47;1.00;;;15.00;88.80;;;;;;5021503;28;20100;-83
2024/02/08 14:47:52;;;;;;;0.10;0.10;;;15.20;88.40;;;;;;5013240;28;20080;-84
2024/02/08 14:53:22;;;;;;;1.97;1.83;;;15.30;88.20;;;;;;4967929;28;20698;-84
2024/02/08 14:55:51;;;;;;;0.00;0.00;;;15.20;88.30;;;;;;4967413;28;20061;-83
2024/02/08 14:58:33;;;;;;;0.00;0.00;;;15.10;89.80;;;;;;4987226;28;20653;-83
2024/02/08 15:01:08;;;;;;;0.00;0.00;;;14.90;89.60;;;;;;5007238;28;20053;-83
2024/02/08 15:03:38;;;;;;;0.10;0.10;;;14.70;90.20;;;;;;5008952;28;20025;-82
2024/02/08 15:06:31;;;;;;;0.00;0.00;;;14.50;90.60;;;;;;5019319;28;20036;-82
2024/02/08 15:14:37;;;;;;;1.88;1.75;;;14.40;90.20;;;;;;5015173;28;20083;-83
2024/02/08 15:17:10;;;;;;;0.00;0.00;;;14.40;90.40;;;;;;5009281;28;20022;-83
2024/02/08 15:19:46;;;;;;;0.90;0.90;;;14.40;90.40;;;;;;5017093;28;20693;-83
2024/02/08 15:22:46;;;;;;;0.00;0.00;;;14.40;90.80;;;;;;5008847;28;20025;-83
2024/02/08 15:25:07;;;;;;;0.10;0.10;;;14.40;90.50;;;;;;5012254;28;20673;-83
2024/02/08 15:30:19;;;;;;;5.68;5.10;;;14.50;85.70;;;;;;5005093;28;20561;-83
2024/02/08 15:35:35;;;;;;;0.20;0.20;;;14.20;90.10;;;;;;5004682;28;20037;-83
2024/02/08 15:38:35;;;;;;;1.50;1.40;;;14.20;90.00;;;;;;5010485;28;20026;-83